Relevés horaires Schaffen (Belgique)


Relevés horaires à Schaffen - Vendredi 16 Avr. 2021
Heure UTC1 Température [°C] Vent [km/h] Hum. [%] Pres.4 [hPa] Visi. [Km] Nébu. [octa] Préc.5 [mm] Cond.
2m. Res. Ros. Dir.2 Vit. Moy. Raf.3
22:00 6.5 5 0.9 N 7.4 -- 11.1 67 1027(0.5/3h) 20 -- -- --
21:00 6.3 4.8 0.6 N 7.4 -- 13.0 67 1026.9(0.6/3h) 20 -- -- --
20:00 7.6 6.8 -0.3 N 5.6 -- 13.0 57 1027(0.8/3h) 20 -- -- --
19:00 8.9 8.9 -4.3 NNO 3.7 -- 7.4 39 1026.5(0.1/3h) 20 -- -- --
18:00 10.2 9.8 -3.4 NE 5.6 -- 14.8 38 1026.2(-0.5/3h) 20 -- -- --
17:00 10.9 9.8 -4.2 NNE 9.3 -- 13.0 34 1026(-1.0/3h) 20 -- -- --
16:00 11.5 10.5 -3.3 N 9.3 -- 14.8 35 1026.2(-1.2/3h) 20 -- -- --
15:00 11.6 11.4 -2.7 NNE 5.6 -- 14.8 37 1026.7(-1.0/3h) 20 -- -- --
14:00 10.8 10.1 -4.0 ENE 7.4 -- 14.8 35 1027.2(-1.0/3h) 20 -- -- --
13:00 10.2 9 -2.9 N 9.3 -- 14.8 40 1027.5(-1.3/3h) 20 -- -- --
12:00 10.5 10.2 -2.4 N 5.6 -- 18.5 40 1027.7(-1.3/3h) 20 -- -- --
11:00 9.9 8.6 -1.4 NNE 9.3 -- 14.8 45 1028.2(-1.0/3h) 20 5/8 -- --
10:00 8.6 7.5 -1.1 NNE 7.4 -- 13.0 50 1029(-0.2/3h) 20 4/8 -- --
09:00 6.2 6.2 -0.1 N 3.7 -- 7.4 64 1029.2(0.1/3h) 20 4/8 -- --
08:00 4.0 4.0 -- N 3.7 -- 5.6 -- 1029.5(0.5/3h) 20 7/8 -- --
07:00 1.7 1.7 -1.0 NNO 1.9 -- 3.7 82 1029.4(0.4/3h) 18 -- -- --
06:00 0.0 0.0 -2.5 NNO 3.7 -- 7.4 83 1029.2(0.1/3h) 20 -- -- --
05:00 0.3 0.3 -2.8 N 3.7 -- 5.6 80 1029(-0.1/3h) 20 -- -- --
04:00 1.3 1.3 -2.8 N 3.7 -- 5.6 74 1029(-0.3/3h) 20 -- -- --
03:00 1.7 1.7 -2.9 N 3.7 -- 7.4 71 1029(-0.5/3h) 20 -- -- --
02:00 2.3 2.3 -3.0 N 3.7 -- 5.6 68 1029(-0.6/3h) 20 -- -- --
01:00 2.8 2.8 -2.9 N 3.7 -- 7.4 66 1029.2(-0.4/3h) 20 -- -- --
00:00 2.7 1.2 -2.0 N 5.6 -- 7.4 71 1029.5(-0.1/3h) 20 -- -- --

1 Coordinated Universal Time. Actuellement il est 00:00 locale et 22:00 UTC.

2 Le vent souffle depuis la direction indiquée vers la direction oposée.

3 Les rafales max. sont disponible 40 min après l'heure du relevé.

4 Pour les stations d'altitude (plus de 600m) le géopotentiel du niveau le plus proche de la pression obligatoire est indiqué.

5 Les stations disposant d'un diffuseur peuvent indiquer "trace". Cela signifie que des précipitations ont touchés le sol mais que la quantité est inférieure à 0.1 mm.

Récapitulatif de la journée
Température [°C] Vent [km/h] Ensoleillement4 [h] Precipitations totale5 [mm] Pression [Hpa]
Min1 Max.2 Moy.3 Max. Min Max.
-0.2 12.0 0 18.5 0 h 0 min 0 1026.0 1029.5

1 Température minimale relevée entre 18:00 UTC la veille et 18:00 UTC le jour donné.

2 Température maximale relevée entre 06:00 UTC le jour donné et 06:00 UTC le lendemain.

3 Vent moyen de la journée basé sur les relevés horaires.

4 Ensoleillement en heures relevé entre 06:00 UTC la veille et 06:00 UTC le jour donné.

5 Précipitations totales tombées entre 06:00 UTC la jour donné et 06:00 UTC le lendemain.

Graphiques horaires